Time;durP1;ratioP1;P1;durP2;ratioP2;P2;SDS_P1;SDS_P2;PMS_P1;PMS_P2;Temp;Humidity;BMP_temperature;BMP_pressure;BME280_temperature;BME280_humidity;BME280_pressure;Samples;Min_cycle;Max_cycle;Signal;HPM_P1;HPM_P2
2023/10/17 00:01:19;;;;;;;9.98;6.25;;;;;;;6.48;100.00;100461.44;5092382;27;20087;-91
2023/10/17 00:03:45;;;;;;;9.13;5.32;;;;;;;6.42;100.00;100454.00;5101303;27;20211;-91
2023/10/17 00:06:13;;;;;;;12.02;6.50;;;;;;;6.44;100.00;100450.34;5115705;27;20027;-91
2023/10/17 00:08:41;;;;;;;11.65;6.30;;;;;;;6.44;100.00;100457.38;5094108;27;20556;-91
2023/10/17 00:11:15;;;;;;;13.48;5.88;;;;;;;6.42;100.00;100449.59;5095444;27;20038;-90
2023/10/17 00:14:00;;;;;;;14.02;6.63;;;;;;;6.40;100.00;100446.25;5116731;27;20037;-90
2023/10/17 00:16:29;;;;;;;11.73;7.10;;;;;;;6.33;100.00;100447.69;5116699;27;20037;-90
2023/10/17 00:18:54;;;;;;;14.25;6.53;;;;;;;6.26;100.00;100452.56;5098568;27;20129;-94
2023/10/17 00:21:23;;;;;;;9.65;5.75;;;;;;;6.18;100.00;100441.81;5099346;27;20033;-93
2023/10/17 00:23:52;;;;;;;9.82;6.35;;;;;;;6.16;100.00;100448.97;5098729;27;20026;-90
2023/10/17 00:26:19;;;;;;;14.60;6.15;;;;;;;6.16;100.00;100441.91;5115255;27;20023;-90
2023/10/17 00:28:51;;;;;;;8.60;5.22;;;;;;;6.16;100.00;100446.34;5111993;27;20027;-93
2023/10/17 00:31:19;;;;;;;15.68;6.35;;;;;;;6.17;100.00;100440.13;5099472;27;20027;-94
2023/10/17 00:33:48;;;;;;;12.65;6.20;;;;;;;6.23;100.00;100446.72;5100317;27;20415;-89
2023/10/17 00:36:16;;;;;;;13.23;5.70;;;;;;;6.19;100.00;100439.06;5092565;27;20465;-90
2023/10/17 00:38:45;;;;;;;12.38;5.65;;;;;;;6.11;100.00;100435.34;5110702;27;20022;-90
2023/10/17 00:41:23;;;;;;;15.35;6.43;;;;;;;6.09;100.00;100432.84;5098782;27;20038;-90
2023/10/17 00:43:49;;;;;;;10.88;5.88;;;;;;;6.07;100.00;100430.31;5111151;27;20026;-91
2023/10/17 00:46:16;;;;;;;9.57;5.28;;;;;;;6.04;100.00;100425.31;5093321;27;20030;-90
2023/10/17 00:48:42;;;;;;;11.50;5.30;;;;;;;5.99;100.00;100418.72;5112764;27;20110;-91
2023/10/17 00:51:08;;;;;;;9.30;5.25;;;;;;;5.98;100.00;100409.16;5111487;28;20042;-89
2023/10/17 00:53:40;;;;;;;13.77;5.35;;;;;;;5.99;100.00;100406.41;5093335;27;20135;-90
2023/10/17 00:56:07;;;;;;;15.40;5.70;;;;;;;6.00;100.00;100404.63;5097221;27;20381;-91
2023/10/17 00:58:35;;;;;;;10.43;4.72;;;;;;;6.02;100.00;100397.50;5098035;27;20121;-91
2023/10/17 01:01:14;;;;;;;8.13;4.53;;;;;;;6.07;100.00;100401.47;5098991;27;20034;-91
2023/10/17 01:03:43;;;;;;;13.50;4.93;;;;;;;6.14;100.00;100399.22;5110574;27;20023;-91
2023/10/17 01:08:58;;;;;;;10.77;5.30;;;;;;;6.26;100.00;100383.50;5135643;27;20038;-90
2023/10/17 01:11:31;;;;;;;9.60;4.55;;;;;;;6.30;100.00;100380.50;5103137;27;20035;-91
2023/10/17 01:13:57;;;;;;;8.38;4.30;;;;;;;6.35;100.00;100387.19;5115000;27;20027;-90
2023/10/17 01:16:25;;;;;;;12.52;5.15;;;;;;;6.39;100.00;100381.56;5110151;27;20029;-90
2023/10/17 01:18:53;;;;;;;10.65;4.43;;;;;;;6.38;100.00;100379.91;5117949;27;20029;-94
2023/10/17 01:21:20;;;;;;;10.07;5.10;;;;;;;6.49;100.00;100384.34;5106633;27;20041;-94
2023/10/17 01:23:53;;;;;;;11.98;5.50;;;;;;;6.56;100.00;100385.50;5121395;27;20474;-91
2023/10/17 01:26:20;;;;;;;7.20;3.78;;;;;;;6.57;100.00;100373.22;5101082;27;20054;-90
2023/10/17 01:28:48;;;;;;;10.40;4.82;;;;;;;6.62;100.00;100371.09;5119050;27;20454;-90
2023/10/17 01:31:15;;;;;;;12.13;4.70;;;;;;;6.65;100.00;100370.84;5101955;27;20031;-90
2023/10/17 01:33:45;;;;;;;7.55;4.07;;;;;;;6.65;100.00;100368.22;5124274;27;20374;-91
2023/10/17 01:36:13;;;;;;;14.23;4.85;;;;;;;6.63;100.00;100371.91;5109499;27;20110;-90
2023/10/17 01:38:42;;;;;;;16.48;5.13;;;;;;;6.61;100.00;100372.03;5096198;27;20121;-90
2023/10/17 01:41:10;;;;;;;9.25;4.00;;;;;;;6.63;100.00;100364.88;5099424;27;20083;-91
2023/10/17 01:43:40;;;;;;;9.18;4.43;;;;;;;6.65;100.00;100364.75;5114849;27;20051;-91
2023/10/17 01:46:09;;;;;;;17.70;5.85;;;;;;;6.66;100.00;100355.91;5102214;27;20026;-90
2023/10/17 01:48:35;;;;;;;10.80;4.57;;;;;;;6.66;100.00;100356.75;5099358;27;20034;-90
2023/10/17 01:51:06;;;;;;;11.52;4.22;;;;;;;6.69;100.00;100360.91;5101944;27;20098;-91
2023/10/17 01:53:33;;;;;;;9.18;4.18;;;;;;;6.68;100.00;100356.63;5093076;27;20046;-90
2023/10/17 01:56:06;;;;;;;12.13;4.60;;;;;;;6.63;100.00;100358.75;5100952;27;20023;-90
2023/10/17 01:58:37;;;;;;;9.25;4.57;;;;;;;6.61;100.00;100344.94;5118600;27;20129;-94
2023/10/17 02:01:04;;;;;;;10.40;4.30;;;;;;;6.56;100.00;100348.75;5113891;27;20023;-95
2023/10/17 02:03:30;;;;;;;11.00;4.00;;;;;;;6.57;100.00;100345.19;5121069;27;20531;-91
2023/10/17 02:05:55;;;;;;;6.28;3.75;;;;;;;6.60;100.00;100336.22;5115433;27;20027;-90
2023/10/17 02:08:22;;;;;;;8.90;4.25;;;;;;;6.61;100.00;100337.88;5135677;27;20037;-91
2023/10/17 02:10:48;;;;;;;7.38;3.78;;;;;;;6.63;100.00;100328.09;5109943;27;20038;-89
2023/10/17 02:13:15;;;;;;;10.50;3.92;;;;;;;6.63;100.00;100322.84;5101221;27;20109;-90
2023/10/17 02:15:41;;;;;;;7.35;3.55;;;;;;;6.58;100.00;100320.59;5101669;27;20379;-91
2023/10/17 02:18:12;;;;;;;10.90;4.10;;;;;;;6.60;100.00;100309.09;5101212;27;20031;-90
2023/10/17 02:20:47;;;;;;;14.48;4.15;;;;;;;6.57;100.00;100307.56;5094455;27;20375;-91
2023/10/17 02:23:19;;;;;;;11.35;3.63;;;;;;;6.53;100.00;100303.53;5111490;27;20035;-90
2023/10/17 02:25:45;;;;;;;8.93;3.47;;;;;;;6.52;100.00;100300.06;5112285;27;20033;-90
2023/10/17 02:28:11;;;;;;;6.47;3.58;;;;;;;6.50;100.00;100307.22;5116638;27;20018;-90
2023/10/17 02:30:37;;;;;;;12.93;4.18;;;;;;;6.48;100.00;100297.81;5113206;27;20030;-90
2023/10/17 02:33:11;;;;;;;7.85;3.83;;;;;;;6.48;100.00;100296.03;5116505;27;20382;-90
2023/10/17 02:35:41;;;;;;;7.40;3.92;;;;;;;6.48;100.00;100288.13;5115697;27;20493;-90
2023/10/17 02:38:08;;;;;;;7.40;3.92;;;;;;;6.48;100.00;100289.91;5115646;27;20026;-90
2023/10/17 02:40:34;;;;;;;6.13;3.20;;;;;;;6.42;100.00;100291.22;5138297;27;20042;-94
2023/10/17 02:43:00;;;;;;;11.05;3.53;;;;;;;6.39;100.00;100283.59;5118312;27;20015;-93
2023/10/17 02:45:26;;;;;;;23.50;4.05;;;;;;;6.35;100.00;100277.78;5104842;27;20042;-90
2023/10/17 02:47:53;;;;;;;7.05;3.50;;;;;;;6.36;100.00;100271.56;5111399;27;20035;-90
2023/10/17 02:52:59;;;;;;;9.10;3.38;;;;;;;6.34;100.00;100262.94;5117153;27;20061;-91
2023/10/17 02:55:25;;;;;;;11.38;4.18;;;;;;;6.37;100.00;100267.97;5108806;27;20058;-91
2023/10/17 02:57:55;;;;;;;7.60;2.90;;;;;;;6.40;100.00;100269.53;5118857;27;20030;-91
2023/10/17 03:00:22;;;;;;;5.55;2.92;;;;;;;6.42;100.00;100263.19;5103765;27;20121;-94
2023/10/17 03:02:52;;;;;;;6.75;3.05;;;;;;;6.51;100.00;100260.78;5104570;27;20026;-94
2023/10/17 03:05:18;;;;;;;7.30;3.60;;;;;;;6.52;100.00;100257.19;5120711;27;20039;-91
2023/10/17 03:07:49;;;;;;;8.80;3.40;;;;;;;6.54;100.00;100256.13;5094297;27;20068;-91
2023/10/17 03:10:26;;;;;;;10.55;3.30;;;;;;;6.57;100.00;100248.00;5116018;27;20046;-91
2023/10/17 03:12:55;;;;;;;7.43;3.30;;;;;;;6.54;100.00;100257.91;5102920;27;20034;-92
2023/10/17 03:15:29;;;;;;;17.17;3.58;;;;;;;6.57;100.00;100257.69;5122234;27;20048;-91
2023/10/17 03:18:00;;;;;;;8.10;3.40;;;;;;;6.57;100.00;100252.41;5102620;27;20031;-90
2023/10/17 03:20:41;;;;;;;7.82;3.10;;;;;;;6.60;100.00;100257.44;5102079;27;20090;-91
2023/10/17 03:23:10;;;;;;;9.57;3.33;;;;;;;6.58;100.00;100239.16;5110773;27;20118;-91
2023/10/17 03:25:39;;;;;;;9.95;3.22;;;;;;;6.62;100.00;100247.66;5112450;27;20058;-91
2023/10/17 03:28:08;;;;;;;11.00;3.53;;;;;;;6.65;100.00;100242.16;5091330;27;20059;-90
2023/10/17 03:30:35;;;;;;;6.03;3.22;;;;;;;6.64;100.00;100237.81;5105411;27;20023;-90
2023/10/17 03:35:35;;;;;;;10.02;2.70;;;;;;;6.68;100.00;100228.75;5113570;27;20027;-91
2023/10/17 03:38:02;;;;;;;14.18;3.85;;;;;;;6.72;100.00;100244.28;5112753;27;20039;-90
2023/10/17 03:42:55;;;;;;;11.52;2.92;;;;;;;6.70;100.00;100233.88;5131462;27;20083;-90
2023/10/17 03:47:53;;;;;;;11.50;3.33;;;;;;;6.69;100.00;100229.56;5110790;27;20039;-90
2023/10/17 03:50:41;;;;;;;13.80;3.50;;;;;;;6.69;100.00;100233.03;5102843;28;20055;-90
2023/10/17 03:53:14;;;;;;;12.93;3.50;;;;;;;6.62;100.00;100229.25;5089622;27;20032;-91
2023/10/17 03:55:48;;;;;;;7.88;3.22;;;;;;;6.63;100.00;100223.03;5094955;27;20043;-90
2023/10/17 04:01:07;;;;;;;8.60;3.03;;;;;;;6.60;100.00;100222.44;5080728;27;20042;-90
2023/10/17 04:03:34;;;;;;;8.02;3.70;;;;;;;6.57;100.00;100220.91;5123372;27;21176;-90
2023/10/17 04:06:02;;;;;;;11.40;3.97;;;;;;;6.58;100.00;100218.16;5095353;28;20031;-90
2023/10/17 04:08:34;;;;;;;12.65;3.42;;;;;;;6.58;100.00;100212.91;5102895;27;20072;-90
2023/10/17 04:13:49;;;;;;;9.93;3.83;;;;;;;6.64;100.00;100216.00;5128478;27;20037;-91
2023/10/17 04:16:34;;;;;;;6.60;4.20;;;;;;;6.66;100.00;100212.28;5106887;28;20027;-91
2023/10/17 04:19:01;;;;;;;8.07;3.45;;;;;;;6.66;100.00;100208.81;5096667;28;20050;-90
2023/10/17 04:21:31;;;;;;;8.82;3.00;;;;;;;6.66;100.00;100211.44;5065944;27;20091;-91
2023/10/17 04:24:02;;;;;;;11.48;3.60;;;;;;;6.65;100.00;100205.38;5129491;27;20050;-90
2023/10/17 04:26:29;;;;;;;14.07;3.25;;;;;;;6.65;100.00;100192.25;5100542;27;20054;-91
2023/10/17 04:28:56;;;;;;;11.30;3.85;;;;;;;6.70;100.00;100192.69;5131658;27;20481;-91
2023/10/17 04:31:25;;;;;;;9.55;3.53;;;;;;;6.73;100.00;100196.03;5113711;27;20255;-90
2023/10/17 04:34:06;;;;;;;13.18;3.88;;;;;;;6.77;100.00;100197.47;5109602;27;20034;-94
2023/10/17 04:36:36;;;;;;;9.85;3.72;;;;;;;6.74;100.00;100187.16;5101527;27;20046;-94
2023/10/17 04:39:48;;;;;;;9.77;4.00;;;;;;;6.74;100.00;100190.66;5100583;27;20091;-93
2023/10/17 04:44:39;;;;;;;14.40;3.95;;;;;;;6.70;100.00;100181.34;5110723;27;20046;-91
2023/10/17 04:49:53;;;;;;;7.45;3.42;;;;;;;6.70;100.00;100176.09;5128759;27;20038;-91
2023/10/17 04:52:30;;;;;;;10.40;3.25;;;;;;;6.75;100.00;100186.22;5100375;27;20130;-87
2023/10/17 04:55:17;;;;;;;13.52;4.20;;;;;;;6.77;100.00;100179.88;5105502;27;20042;-94
2023/10/17 05:06:18;;;;;;;6.90;3.50;;;;;;;6.83;100.00;100168.06;5120047;27;20034;-90
2023/10/17 06:17:23;;;;;;;6.90;3.63;;;;;;;7.61;100.00;100153.69;5112524;27;20035;-90
2023/10/17 06:19:49;;;;;;;10.75;3.83;;;;;;;7.62;100.00;100146.63;5111529;27;20473;-91
2023/10/17 06:28:25;;;;;;;10.88;4.25;;;;;;;7.74;100.00;100158.72;5109119;27;20658;-92
2023/10/17 06:30:33;;;;;;;9.27;3.78;;;;;;;7.80;100.00;100163.44;5127636;27;20053;-90
2023/10/17 06:35:57;;;;;;;10.73;3.20;;;;;;;7.84;100.00;100157.91;5080975;27;20043;-93
2023/10/17 06:38:45;;;;;;;6.47;3.28;;;;;;;7.86;100.00;100154.19;5115063;27;20466;-94
2023/10/17 06:41:14;;;;;;;9.10;4.10;;;;;;;7.87;100.00;100142.69;5110918;27;20037;-91
2023/10/17 06:43:46;;;;;;;13.32;3.92;;;;;;;7.84;100.00;100144.75;5100136;27;20125;-91
2023/10/17 06:46:28;;;;;;;11.13;4.68;;;;;;;7.88;100.00;100138.28;5109878;27;20059;-91
2023/10/17 06:48:57;;;;;;;12.60;4.18;;;;;;;7.81;100.00;100140.59;5114165;27;20042;-90
2023/10/17 06:54:24;;;;;;;10.23;4.40;;;;;;;7.79;100.00;100130.22;5098292;27;20046;-90
2023/10/17 06:56:54;;;;;;;11.65;3.58;;;;;;;7.79;100.00;100140.75;5106074;27;20043;-91
2023/10/17 06:59:35;;;;;;;7.35;3.88;;;;;;;7.75;100.00;100134.09;5101784;27;20042;-92
2023/10/17 07:02:10;;;;;;;11.45;3.70;;;;;;;7.76;100.00;100119.13;5111172;28;20035;-90
2023/10/17 07:04:37;;;;;;;5.93;3.35;;;;;;;7.74;100.00;100126.31;5106205;27;20050;-91
2023/10/17 07:07:04;;;;;;;12.65;3.30;;;;;;;7.72;100.00;100120.38;5111936;27;20054;-91
2023/10/17 07:09:37;;;;;;;14.52;4.30;;;;;;;7.71;100.00;100116.88;5095593;27;20409;-94
2023/10/17 07:12:05;;;;;;;5.70;3.57;;;;;;;7.73;100.00;100117.59;5103093;27;20118;-93
2023/10/17 07:14:30;;;;;;;6.57;3.30;;;;;;;7.74;100.00;100113.19;5110560;27;20419;-91
2023/10/17 07:17:17;;;;;;;10.35;4.05;;;;;;;7.73;100.00;100111.50;5085303;27;20041;-91
2023/10/17 07:19:59;;;;;;;9.85;4.13;;;;;;;7.75;100.00;100113.03;5094587;27;20038;-92
2023/10/17 07:22:26;;;;;;;10.77;3.80;;;;;;;7.76;100.00;100111.22;5110301;27;20043;-92
2023/10/17 07:24:53;;;;;;;10.95;3.85;;;;;;;7.74;100.00;100119.25;5106104;27;20036;-92
2023/10/17 07:27:19;;;;;;;5.93;3.75;;;;;;;7.77;100.00;100115.53;5102292;27;20027;-92
2023/10/17 07:29:45;;;;;;;9.40;3.95;;;;;;;7.74;100.00;100123.69;5094146;27;20039;-92
2023/10/17 07:32:17;;;;;;;12.75;4.40;;;;;;;7.71;100.00;100114.25;5092720;28;20122;-92
2023/10/17 07:34:43;;;;;;;12.18;3.95;;;;;;;7.71;100.00;100103.72;5125886;27;20072;-92
2023/10/17 07:42:31;;;;;;;9.27;3.80;;;;;;;7.66;100.00;100104.13;5111336;27;20104;-91
2023/10/17 07:45:02;;;;;;;7.07;4.07;;;;;;;7.64;100.00;100099.97;5113567;27;20475;-92
2023/10/17 07:47:34;;;;;;;10.68;3.88;;;;;;;7.65;100.00;100096.38;5094422;28;20035;-91
2023/10/17 07:50:00;;;;;;;14.40;5.32;;;;;;;7.62;100.00;100097.50;5094618;27;20031;-92
2023/10/17 07:52:26;;;;;;;13.85;4.32;;;;;;;7.67;100.00;100099.72;5115197;27;20039;-91
2023/10/17 07:57:36;;;;;;;6.90;3.97;;;;;;;7.79;100.00;100088.13;5111398;28;20044;-92
2023/10/17 08:00:24;;;;;;;6.75;3.53;;;;;;;7.94;100.00;100082.47;5097584;27;20038;-92
2023/10/17 08:02:51;;;;;;;12.75;3.17;;;;;;;8.09;100.00;100082.06;5092709;27;20031;-93
2023/10/17 08:05:23;;;;;;;10.18;3.60;;;;;;;8.28;100.00;100083.91;5098378;27;20057;-91
2023/10/17 08:07:49;;;;;;;6.63;2.90;;;;;;;8.37;100.00;100077.78;5113725;27;20092;-92
2023/10/17 08:10:29;;;;;;;8.75;2.80;;;;;;;8.50;100.00;100077.50;5118835;27;20122;-93
2023/10/17 08:12:57;;;;;;;15.00;3.08;;;;;;;8.63;100.00;100073.78;5100223;27;20032;-94
2023/10/17 08:15:38;;;;;;;4.63;2.53;;;;;;;8.72;100.00;100061.56;5094147;28;20023;-92
2023/10/17 08:18:14;;;;;;;8.77;3.00;;;;;;;8.79;100.00;100066.13;5095378;27;20035;-95
2023/10/17 08:23:34;;;;;;;8.48;3.17;;;;;;;8.98;100.00;100066.22;5108534;28;20051;-95
2023/10/17 08:26:01;;;;;;;8.05;2.38;;;;;;;9.09;100.00;100062.56;5081384;28;20027;-96
2023/10/17 08:28:37;;;;;;;19.98;3.10;;;;;;;9.17;100.00;100060.06;5089945;28;20493;-96
2023/10/17 08:31:27;;;;;;;9.88;2.58;;;;;;;9.25;100.00;100057.50;5095975;28;20045;-95
2023/10/17 08:34:09;;;;;;;7.68;2.42;;;;;;;9.34;100.00;100054.97;5085356;28;20020;-96
2023/10/17 08:42:05;;;;;;;7.05;1.88;;;;;;;9.52;100.00;100049.75;5122400;28;20045;-93
2023/10/17 08:44:34;;;;;;;8.30;3.35;;;;;;;9.59;100.00;100044.72;5103251;28;20130;-95
2023/10/17 08:47:01;;;;;;;6.07;2.08;;;;;;;9.60;100.00;100034.03;5110753;28;20036;-96
2023/10/17 08:49:28;;;;;;;8.63;2.50;;;;;;;9.64;100.00;100039.81;5106455;28;20027;-95
2023/10/17 08:51:57;;;;;;;8.10;2.55;;;;;;;9.68;100.00;100036.72;5098373;28;20060;-95
2023/10/17 08:54:25;;;;;;;10.57;2.30;;;;;;;9.71;100.00;100035.63;5114652;28;20114;-94
2023/10/17 08:56:50;;;;;;;10.88;2.60;;;;;;;9.75;100.00;100030.84;5094679;28;20084;-95
2023/10/17 08:59:32;;;;;;;5.93;2.22;;;;;;;9.77;100.00;100031.56;5097373;28;20030;-96
2023/10/17 09:02:03;;;;;;;3.92;2.15;;;;;;;9.87;100.00;100034.13;5096067;28;20089;-95
2023/10/17 09:04:33;;;;;;;9.18;2.85;;;;;;;9.90;100.00;100028.53;5087003;28;20471;-96
2023/10/17 09:07:04;;;;;;;5.90;2.40;;;;;;;9.93;100.00;100031.72;5111591;28;20100;-94
2023/10/17 09:09:33;;;;;;;4.93;2.60;;;;;;;10.00;100.00;100031.13;5093996;28;20370;-94
2023/10/17 09:12:01;;;;;;;7.57;2.58;;;;;;;10.04;100.00;100024.53;5110111;28;20103;-95
2023/10/17 09:14:35;;;;;;;11.65;2.75;;;;;;;10.03;100.00;100015.78;5097993;28;20539;-96
2023/10/17 09:17:47;;;;;;;7.70;2.17;;;;;;;10.03;100.00;100013.16;5114698;28;20023;-96
2023/10/17 09:19:50;;;;;;;8.55;2.33;;;;;;;10.07;100.00;100004.91;5114770;28;20043;-94
2023/10/17 09:22:26;;;;;;;9.05;2.08;;;;;;;10.16;100.00;100007.47;5086436;28;20041;-95
2023/10/17 09:24:53;;;;;;;7.32;2.40;;;;;;;10.13;100.00;100006.97;5110113;28;20050;-96
2023/10/17 09:27:19;;;;;;;7.13;2.33;;;;;;;10.15;100.00;100002.34;5096931;27;20030;-95
2023/10/17 09:29:55;;;;;;;6.28;2.05;;;;;;;10.21;100.00;99998.28;5108091;27;20019;-95
2023/10/17 09:32:32;;;;;;;11.50;2.00;;;;;;;10.29;100.00;99998.34;5091346;28;20060;-96
2023/10/17 09:35:04;;;;;;;6.53;1.85;;;;;;;10.27;100.00;100001.13;5100736;27;20038;-96
2023/10/17 09:37:30;;;;;;;13.25;2.10;;;;;;;10.34;100.00;100003.16;5108773;27;20114;-93
2023/10/17 09:39:59;;;;;;;6.93;1.63;;;;;;;10.38;100.00;100004.53;5093316;28;20126;-96
2023/10/17 09:42:26;;;;;;;8.73;2.38;;;;;;;10.36;100.00;99996.75;5103027;27;20130;-96
2023/10/17 09:44:52;;;;;;;7.05;1.60;;;;;;;10.42;100.00;99997.94;5098986;27;20035;-94
2023/10/17 09:47:22;;;;;;;8.48;1.23;;;;;;;10.43;100.00;99994.34;5098162;27;20270;-93
2023/10/17 09:49:52;;;;;;;7.40;1.90;;;;;;;10.47;100.00;100000.16;5118568;27;20041;-96
2023/10/17 09:52:19;;;;;;;6.55;1.95;;;;;;;10.50;100.00;99990.09;5116338;27;20130;-95
2023/10/17 09:54:51;;;;;;;4.47;1.40;;;;;;;10.54;100.00;99995.91;5109794;28;20103;-95
2023/10/17 09:57:20;;;;;;;3.47;1.33;;;;;;;10.54;100.00;99988.00;5088577;27;20404;-96
2023/10/17 10:00:04;;;;;;;4.53;1.23;;;;;;;10.57;100.00;99984.19;5101202;27;20019;-96
2023/10/17 10:02:35;;;;;;;8.40;1.55;;;;;;;10.56;100.00;99978.06;5109770;27;20027;-93
2023/10/17 10:05:39;;;;;;;7.60;1.40;;;;;;;10.61;100.00;99983.72;5100322;27;20031;-93
2023/10/17 10:08:33;;;;;;;7.35;1.55;;;;;;;10.60;100.00;99973.31;5020354;28;20155;-94
2023/10/17 10:11:00;;;;;;;6.78;1.58;;;;;;;10.58;100.00;99973.47;5011873;28;20029;-93
2023/10/17 10:13:27;;;;;;;6.70;1.30;;;;;;;10.56;100.00;99970.13;5077156;27;20051;-93
2023/10/17 10:16:07;;;;;;;5.75;1.20;;;;;;;10.63;100.00;99978.28;5113982;28;20098;-95
2023/10/17 10:18:36;;;;;;;6.13;1.20;;;;;;;10.64;100.00;99979.94;5100412;27;20058;-94
2023/10/17 10:21:03;;;;;;;6.50;1.25;;;;;;;10.62;100.00;99976.63;5093668;28;20023;-94
2023/10/17 10:23:42;;;;;;;4.70;0.90;;;;;;;10.67;100.00;99974.38;5118518;27;20039;-94
2023/10/17 10:26:11;;;;;;;7.07;1.95;;;;;;;10.71;100.00;99980.97;5115376;27;20059;-95
2023/10/17 10:28:56;;;;;;;5.25;1.52;;;;;;;10.70;100.00;99975.84;5111890;27;20031;-95
2023/10/17 10:31:21;;;;;;;5.15;0.93;;;;;;;10.60;100.00;99974.16;5088519;27;20034;-94
2023/10/17 10:34:00;;;;;;;5.57;1.08;;;;;;;10.70;100.00;99966.13;5111191;27;20038;-95
2023/10/17 10:36:26;;;;;;;3.22;0.98;;;;;;;10.65;100.00;99971.03;5112642;28;20114;-96
2023/10/17 10:38:54;;;;;;;6.13;1.52;;;;;;;10.75;100.00;99970.94;5100641;27;20030;-96
2023/10/17 10:41:22;;;;;;;5.78;1.55;;;;;;;10.73;100.00;99968.44;5101358;27;20018;-94
2023/10/17 10:43:57;;;;;;;6.32;0.88;;;;;;;10.76;100.00;99967.28;5109698;27;20030;-93
2023/10/17 10:46:23;;;;;;;1.90;0.82;;;;;;;10.75;100.00;99966.44;5110984;27;20091;-94
2023/10/17 10:48:53;;;;;;;3.55;0.93;;;;;;;10.82;100.00;99973.75;5110116;27;20111;-95
2023/10/17 10:51:27;;;;;;;2.20;0.80;;;;;;;10.78;100.00;99978.53;5098710;28;20031;-95
2023/10/17 10:53:57;;;;;;;4.07;1.20;;;;;;;10.78;100.00;99962.69;5105176;27;20065;-96
2023/10/17 10:56:26;;;;;;;5.30;0.95;;;;;;;10.77;100.00;99961.84;5098257;27;20095;-94
2023/10/17 10:58:57;;;;;;;5.07;0.82;;;;;;;10.82;100.00;99956.09;5097723;28;20035;-96
2023/10/17 11:01:25;;;;;;;6.05;1.05;;;;;;;10.83;100.00;99955.09;5109512;28;20036;-94
2023/10/17 11:03:52;;;;;;;7.70;0.98;;;;;;;10.82;100.00;99955.25;5110520;27;20033;-96
2023/10/17 11:06:29;;;;;;;3.92;1.20;;;;;;;10.88;100.00;99952.81;5095345;28;20039;-95
2023/10/17 11:08:55;;;;;;;5.50;1.08;;;;;;;10.82;100.00;99950.78;5095979;28;20028;-92
2023/10/17 11:11:21;;;;;;;12.15;1.38;;;;;;;10.83;100.00;99955.09;5092751;27;20038;-93
2023/10/17 11:13:51;;;;;;;3.03;0.80;;;;;;;10.91;100.00;99943.72;5090165;27;20036;-94
2023/10/17 11:16:18;;;;;;;5.82;0.95;;;;;;;10.92;100.00;99937.47;5111059;27;20039;-95
2023/10/17 11:18:44;;;;;;;5.35;1.20;;;;;;;10.96;100.00;99937.97;5104172;27;20023;-94
2023/10/17 11:21:10;;;;;;;6.28;1.35;;;;;;;10.96;100.00;99940.63;5099979;27;20099;-94
2023/10/17 11:23:50;;;;;;;2.63;0.77;;;;;;;11.02;100.00;99932.03;5092711;27;20500;-96
2023/10/17 11:26:21;;;;;;;9.57;1.55;;;;;;;10.96;100.00;99925.56;5107489;27;20043;-95
2023/10/17 11:28:47;;;;;;;3.60;0.85;;;;;;;10.95;100.00;99926.56;5099562;27;20019;-92
2023/10/17 11:31:21;;;;;;;8.10;1.60;;;;;;;11.00;100.00;99918.16;5111517;27;20061;-95
2023/10/17 11:34:07;;;;;;;3.42;0.93;;;;;;;10.95;100.00;99918.63;5096247;27;20041;-95
2023/10/17 11:36:48;;;;;;;7.20;1.00;;;;;;;10.94;100.00;99916.16;5095176;27;20109;-94
2023/10/17 11:39:18;;;;;;;8.93;1.55;;;;;;;10.88;100.00;99913.16;5112042;27;20043;-96
2023/10/17 11:41:56;;;;;;;8.02;1.80;;;;;;;10.99;100.00;99908.56;5125048;27;20023;-93
2023/10/17 11:44:23;;;;;;;4.30;1.15;;;;;;;10.93;100.00;99899.44;5101020;27;20055;-91
2023/10/17 11:47:01;;;;;;;6.20;1.10;;;;;;;10.97;100.00;99895.50;5097545;27;20494;-93
2023/10/17 11:49:35;;;;;;;8.32;1.42;;;;;;;11.02;100.00;99898.47;5097294;27;20031;-92
2023/10/17 11:52:09;;;;;;;4.40;1.38;;;;;;;11.03;100.00;99878.16;5120416;27;20041;-92
2023/10/17 11:54:53;;;;;;;8.32;1.38;;;;;;;11.02;100.00;99872.03;5118794;27;20121;-94
2023/10/17 11:57:23;;;;;;;6.43;1.13;;;;;;;10.99;100.00;99871.56;5102272;27;20074;-93
2023/10/17 12:00:06;;;;;;;4.95;1.10;;;;;;;10.99;100.00;99868.91;5098942;27;20031;-95
2023/10/17 12:02:41;;;;;;;3.20;1.17;;;;;;;10.96;100.00;99869.22;5096780;27;20864;-94
2023/10/17 12:05:17;;;;;;;7.10;1.27;;;;;;;10.97;100.00;99861.13;5119338;27;20037;-94
2023/10/17 12:07:43;;;;;;;;;;;;;;;10.98;100.00;99846.91;5104905;27;20459;-94
2023/10/17 12:10:09;;;;;;;10.50;1.30;;;;;;;10.95;100.00;99847.22;5083903;27;19914;-92
2023/10/17 12:12:35;;;;;;;10.50;1.40;;;;;;;10.98;100.00;99835.50;5102278;27;20096;-94
2023/10/17 12:15:01;;;;;;;3.75;1.05;;;;;;;11.02;100.00;99842.13;5097693;27;20493;-95
2023/10/17 12:17:26;;;;;;;3.50;1.08;;;;;;;11.02;100.00;99828.91;5114846;27;20030;-94
2023/10/17 12:19:52;;;;;;;2.63;0.90;;;;;;;11.06;100.00;99834.69;5094277;27;20470;-93
2023/10/17 12:22:18;;;;;;;7.55;1.40;;;;;;;11.02;100.00;99823.63;5092957;27;20046;-94
2023/10/17 12:24:45;;;;;;;5.50;1.10;;;;;;;11.03;100.00;99826.09;5062664;27;20035;-94
2023/10/17 12:27:14;;;;;;;5.35;1.05;;;;;;;11.06;100.00;99808.22;5114909;27;20041;-95
2023/10/17 12:29:41;;;;;;;5.00;1.42;;;;;;;11.09;100.00;99808.75;5101792;27;20060;-94
2023/10/17 12:32:10;;;;;;;8.02;1.42;;;;;;;11.09;100.00;99813.19;5112379;27;20033;-94
2023/10/17 12:34:42;;;;;;;10.05;1.38;;;;;;;11.14;100.00;99802.97;5096438;27;20027;-93
2023/10/17 12:37:12;;;;;;;4.70;1.27;;;;;;;11.11;100.00;99796.19;5099030;27;20065;-92
2023/10/17 12:39:42;;;;;;;7.65;1.63;;;;;;;11.09;100.00;99800.81;5098508;27;20545;-93
2023/10/17 12:42:08;;;;;;;5.07;1.50;;;;;;;11.11;100.00;99808.59;5105668;27;20220;-96
2023/10/17 12:44:33;;;;;;;4.55;1.40;;;;;;;11.03;100.00;99789.09;5097075;27;20663;-93
2023/10/17 12:46:59;;;;;;;4.97;1.23;;;;;;;11.01;100.00;99798.97;5105643;27;20035;-92
2023/10/17 12:49:25;;;;;;;6.65;1.10;;;;;;;11.04;100.00;99784.59;5098023;27;20082;-96
2023/10/17 12:51:53;;;;;;;4.15;1.33;;;;;;;11.07;100.00;99786.09;5091953;27;20091;-92
2023/10/17 12:54:18;;;;;;;11.40;1.90;;;;;;;11.03;100.00;99786.44;5099734;27;20033;-86
2023/10/17 12:56:44;;;;;;;4.60;1.60;;;;;;;11.02;100.00;99779.47;5089816;27;20026;-94
2023/10/17 12:59:13;;;;;;;8.35;1.80;;;;;;;11.07;100.00;99778.19;5091657;27;20035;-94
2023/10/17 13:01:41;;;;;;;5.85;1.50;;;;;;;11.06;100.00;99766.75;5097682;27;20027;-93
2023/10/17 13:04:09;;;;;;;6.82;1.50;;;;;;;11.01;100.00;99775.19;5118923;27;20042;-94
2023/10/17 13:06:38;;;;;;;5.53;1.88;;;;;;;11.02;100.00;99766.25;5101333;27;20031;-94
2023/10/17 13:09:09;;;;;;;8.60;1.88;;;;;;;11.06;100.00;99774.69;5099278;27;20097;-92
2023/10/17 13:11:45;;;;;;;6.72;1.23;;;;;;;10.97;100.00;99760.66;5114896;27;20031;-93
2023/10/17 13:14:11;;;;;;;10.35;2.17;;;;;;;10.97;100.00;99763.28;5103608;27;20026;-93
2023/10/17 13:16:38;;;;;;;9.48;1.65;;;;;;;10.96;100.00;99753.69;5100743;27;20027;-92
2023/10/17 13:19:08;;;;;;;5.68;1.80;;;;;;;11.03;100.00;99760.00;5102779;27;20436;-93
2023/10/17 13:21:37;;;;;;;7.53;2.00;;;;;;;11.00;100.00;99754.19;5116757;27;20055;-93
2023/10/17 13:24:05;;;;;;;7.82;1.50;;;;;;;11.02;100.00;99750.38;5105924;27;20039;-94
2023/10/17 13:26:32;;;;;;;6.93;1.58;;;;;;;10.91;100.00;99742.78;5092481;27;20106;-93
2023/10/17 13:28:58;;;;;;;6.82;2.00;;;;;;;10.92;100.00;99741.78;5100628;27;20041;-94
2023/10/17 13:31:28;;;;;;;8.55;1.67;;;;;;;10.95;100.00;99757.34;5116759;27;20059;-94
2023/10/17 13:33:55;;;;;;;13.43;1.70;;;;;;;10.93;100.00;99743.44;5087438;28;20545;-94
2023/10/17 13:36:22;;;;;;;11.02;2.20;;;;;;;10.93;100.00;99748.72;5093680;27;20065;-94
2023/10/17 13:38:48;;;;;;;9.82;1.70;;;;;;;10.91;100.00;99740.13;5098259;28;20378;-95
2023/10/17 13:41:15;;;;;;;9.10;2.33;;;;;;;10.89;100.00;99753.50;5100827;27;21203;-93
2023/10/17 13:43:47;;;;;;;9.13;2.38;;;;;;;10.89;100.00;99744.78;5088345;27;20545;-92
2023/10/17 13:46:16;;;;;;;8.05;2.42;;;;;;;10.86;100.00;99735.34;5101773;27;20031;-92